createdAt,value
2022-10-04T00:00:11.523Z,15.48
2022-10-04T00:05:18.956Z,37.35
2022-10-04T00:10:26.730Z,13.43
2022-10-04T00:15:33.863Z,16.53
2022-10-04T00:20:57.932Z,20.20
2022-10-04T00:26:05.403Z,12.07
2022-10-04T00:31:13.347Z,14.83
2022-10-04T00:36:53.988Z,19.92
2022-10-04T00:42:09.996Z,18.42
2022-10-04T00:47:22.635Z,14.70
2022-10-04T00:52:28.604Z,15.20
2022-10-04T00:57:39.994Z,19.70
2022-10-04T01:02:53.551Z,18.55
2022-10-04T01:08:04.760Z,15.50
2022-10-04T01:13:15.173Z,15.45
2022-10-04T01:18:30.679Z,14.65
2022-10-04T01:23:38.170Z,16.08
2022-10-04T01:28:41.980Z,17.53
2022-10-04T01:33:46.534Z,18.08
2022-10-04T01:38:52.591Z,18.58
2022-10-04T01:44:01.310Z,16.17
2022-10-04T01:49:08.723Z,14.70
2022-10-04T01:54:18.384Z,20.98
2022-10-04T01:59:28.226Z,21.20
2022-10-04T02:04:35.265Z,14.65
2022-10-04T02:09:43.705Z,14.23
2022-10-04T02:19:58.721Z,15.95
2022-10-04T02:25:04.280Z,16.95
2022-10-04T02:30:10.852Z,14.00
2022-10-04T02:35:15.841Z,19.17
2022-10-04T02:40:26.239Z,18.17
2022-10-04T02:45:39.419Z,16.00
2022-10-04T02:50:49.508Z,18.10
2022-10-04T02:55:56.948Z,17.10
2022-10-04T03:01:01.883Z,17.87
2022-10-04T03:06:09.039Z,14.45
2022-10-04T03:11:15.952Z,18.87
2022-10-04T03:16:20.952Z,17.30
2022-10-04T03:21:26.421Z,21.52
2022-10-04T03:26:38.245Z,18.00
2022-10-04T03:31:45.731Z,17.50
2022-10-04T03:36:51.501Z,20.03
2022-10-04T03:41:58.573Z,22.05
2022-10-04T03:47:02.788Z,19.40
2022-10-04T03:52:08.532Z,19.65
2022-10-04T03:57:14.136Z,19.33
2022-10-04T04:02:30.956Z,21.70
2022-10-04T04:07:40.279Z,22.98
2022-10-04T04:12:48.465Z,20.08
2022-10-04T04:17:55.221Z,22.70
2022-10-04T04:23:04.753Z,23.60
2022-10-04T04:28:25.561Z,19.58
2022-10-04T04:33:32.484Z,15.85
2022-10-04T04:38:56.437Z,20.20
2022-10-04T04:44:01.922Z,24.05
2022-10-04T04:49:06.397Z,19.30
2022-10-04T04:54:10.204Z,20.37
2022-10-04T04:59:16.575Z,23.02
2022-10-04T05:04:23.051Z,22.62
2022-10-04T05:09:30.381Z,19.58
2022-10-04T05:14:36.250Z,22.00
2022-10-04T05:19:41.363Z,25.50
2022-10-04T05:24:47.623Z,33.75
2022-10-04T05:30:03.698Z,29.17
2022-10-04T05:35:17.715Z,22.27
2022-10-04T05:40:42.447Z,26.52
2022-10-04T05:45:47.871Z,25.67
2022-10-04T05:50:51.714Z,24.70
2022-10-04T05:56:07.675Z,25.55
2022-10-04T06:01:29.083Z,25.45
2022-10-04T06:06:41.584Z,28.48
2022-10-04T06:11:55.763Z,24.75
2022-10-04T06:17:21.366Z,22.58
2022-10-04T06:22:26.824Z,24.00
2022-10-04T06:27:37.080Z,21.90
2022-10-04T06:32:59.185Z,27.90
2022-10-04T06:38:26.072Z,24.25
2022-10-04T06:43:43.239Z,19.73
2022-10-04T06:49:32.949Z,20.35
2022-10-04T06:54:52.901Z,17.33
2022-10-04T07:00:23.108Z,16.17
2022-10-04T07:05:35.027Z,22.33
2022-10-04T07:10:47.520Z,19.08
2022-10-04T07:15:56.849Z,20.48
2022-10-04T07:21:06.886Z,20.35
2022-10-04T07:26:22.277Z,17.12
2022-10-04T07:31:29.589Z,18.62
2022-10-04T07:36:46.866Z,17.98
2022-10-04T07:41:53.819Z,16.08
2022-10-04T07:47:02.143Z,20.83
2022-10-04T07:57:38.087Z,18.48
2022-10-04T08:02:56.665Z,16.17
2022-10-04T08:08:25.515Z,15.60
2022-10-04T08:13:41.981Z,14.75
2022-10-04T08:19:00.039Z,11.23
2022-10-04T08:24:21.610Z,15.05
2022-10-04T08:29:49.363Z,14.43
2022-10-04T08:35:05.236Z,11.52
2022-10-04T08:40:36.317Z,11.85
2022-10-04T08:46:05.863Z,18.42
2022-10-04T08:51:41.645Z,15.77
2022-10-04T08:56:59.390Z,15.77
2022-10-04T09:02:24.206Z,15.98
2022-10-04T09:07:53.713Z,17.33
2022-10-04T09:13:34.098Z,13.13
2022-10-04T09:19:19.642Z,18.65
2022-10-04T09:24:54.164Z,13.40
2022-10-04T09:30:12.109Z,11.77
2022-10-04T09:35:39.019Z,14.75
2022-10-04T09:41:06.574Z,15.07
2022-10-04T09:46:33.076Z,11.43
2022-10-04T09:51:55.754Z,14.20
2022-10-04T09:57:14.060Z,9.50
2022-10-04T10:02:57.341Z,12.15
2022-10-04T10:08:14.215Z,11.50
2022-10-04T10:13:43.078Z,9.55
2022-10-04T10:19:00.174Z,13.10
2022-10-04T10:24:30.169Z,10.23
2022-10-04T10:29:51.943Z,9.45
2022-10-04T10:35:35.417Z,9.02
2022-10-04T10:40:59.948Z,10.55
2022-10-04T10:46:28.480Z,10.57
2022-10-04T10:51:50.255Z,9.48
2022-10-04T10:57:06.357Z,9.55
2022-10-04T11:02:49.763Z,13.50
2022-10-04T11:07:56.438Z,8.60
2022-10-04T11:13:26.943Z,6.40
2022-10-04T11:18:57.405Z,6.43
2022-10-04T11:24:35.519Z,8.75
2022-10-04T11:29:55.822Z,10.48
2022-10-04T11:35:37.160Z,11.82
2022-10-04T11:40:54.604Z,8.52
2022-10-04T11:46:17.893Z,8.55
2022-10-04T11:52:02.075Z,8.90
2022-10-04T11:57:15.917Z,7.47
2022-10-04T12:02:56.855Z,8.25
2022-10-04T12:08:17.345Z,7.78
2022-10-04T12:13:37.920Z,6.07
2022-10-04T12:19:13.487Z,6.45
2022-10-04T12:24:38.397Z,9.25
2022-10-04T12:30:15.706Z,9.32
2022-10-04T12:40:38.110Z,7.72
2022-10-04T12:45:52.938Z,8.90
2022-10-04T12:51:16.147Z,7.53
2022-10-04T12:56:37.267Z,4.87
2022-10-04T13:01:52.556Z,11.25
2022-10-04T13:07:14.650Z,7.95
2022-10-04T13:12:31.483Z,8.98
2022-10-04T13:17:47.065Z,5.07
2022-10-04T13:23:00.700Z,6.32
2022-10-04T13:28:13.118Z,5.57
2022-10-04T13:33:26.921Z,5.05
2022-10-04T13:38:53.577Z,6.07
2022-10-04T13:44:30.121Z,7.03
2022-10-04T13:49:48.464Z,3.50
2022-10-04T13:55:31.021Z,5.18
2022-10-04T14:00:48.030Z,4.05
2022-10-04T14:11:44.769Z,8.40
2022-10-04T14:17:14.360Z,6.37
2022-10-04T14:22:54.381Z,9.52
2022-10-04T14:28:35.724Z,5.62
2022-10-04T14:34:16.543Z,6.75
2022-10-04T14:39:39.529Z,6.97
2022-10-04T14:45:04.339Z,10.45
2022-10-04T14:50:24.887Z,5.93
2022-10-04T14:56:06.773Z,4.12
2022-10-04T15:01:21.034Z,5.15
2022-10-04T15:06:36.158Z,5.07
2022-10-04T15:11:57.507Z,4.35
2022-10-04T15:17:25.339Z,8.63
2022-10-04T15:22:37.608Z,6.32
2022-10-04T15:27:56.582Z,9.00
2022-10-04T15:33:34.012Z,5.90
2022-10-04T15:38:48.540Z,5.82
2022-10-04T15:44:29.744Z,6.60
2022-10-04T15:49:52.618Z,6.90
2022-10-04T15:55:27.069Z,7.05
2022-10-04T16:00:47.986Z,8.77
2022-10-04T16:06:03.422Z,7.28
2022-10-04T16:11:31.986Z,5.72
2022-10-04T16:17:12.107Z,10.68
2022-10-04T16:22:19.267Z,5.15
2022-10-04T16:27:57.205Z,5.23
2022-10-04T16:33:07.288Z,11.10
2022-10-04T16:38:25.299Z,5.15
2022-10-04T16:48:40.272Z,7.87
2022-10-04T16:53:52.484Z,7.65
2022-10-04T16:59:00.337Z,6.30
2022-10-04T17:04:21.356Z,14.70
2022-10-04T17:09:30.853Z,7.15
2022-10-04T17:14:57.748Z,5.45
2022-10-04T17:20:08.247Z,10.45
2022-10-04T17:25:28.667Z,15.43
2022-10-04T17:30:46.093Z,7.62
2022-10-04T17:36:01.468Z,9.73
2022-10-04T17:41:17.840Z,5.93
2022-10-04T17:46:30.458Z,9.57
2022-10-04T17:51:58.313Z,7.03
2022-10-04T17:57:23.011Z,14.20
2022-10-04T18:02:39.448Z,5.28
2022-10-04T18:07:48.933Z,10.75
2022-10-04T18:12:59.644Z,12.68
2022-10-04T18:18:16.091Z,12.77
2022-10-04T18:23:27.316Z,11.23
2022-10-04T18:28:34.759Z,8.45
2022-10-04T18:33:50.122Z,7.20
2022-10-04T18:39:05.501Z,6.28
2022-10-04T18:44:15.734Z,5.70
2022-10-04T18:49:24.765Z,11.50
2022-10-04T18:54:36.547Z,7.72
2022-10-04T19:00:09.236Z,8.15
2022-10-04T19:05:19.535Z,10.80
2022-10-04T19:10:28.971Z,9.25
2022-10-04T19:15:44.265Z,6.95
2022-10-04T19:20:52.817Z,7.82
2022-10-04T19:26:30.562Z,10.77
2022-10-04T19:31:35.147Z,8.50
2022-10-04T19:36:49.027Z,9.80
2022-10-04T19:41:59.368Z,12.20
2022-10-04T19:47:13.289Z,9.27
2022-10-04T19:52:23.331Z,10.68
2022-10-04T19:57:39.564Z,8.55
2022-10-04T20:02:48.704Z,11.82
2022-10-04T20:07:57.095Z,7.82
2022-10-04T20:13:24.140Z,9.85
2022-10-04T20:18:59.601Z,9.25
2022-10-04T20:24:03.671Z,9.48
2022-10-04T20:29:08.497Z,9.63
2022-10-04T20:34:34.208Z,9.40
2022-10-04T20:40:02.160Z,9.13
2022-10-04T20:45:27.925Z,7.43
2022-10-04T20:50:42.277Z,14.80
2022-10-04T20:55:46.804Z,10.60
2022-10-04T21:00:54.733Z,10.00
2022-10-04T21:06:06.059Z,9.70
2022-10-04T21:11:20.536Z,11.88
2022-10-04T21:16:38.142Z,9.07
2022-10-04T21:22:01.657Z,7.87
2022-10-04T21:27:07.004Z,8.25
2022-10-04T21:32:10.807Z,11.20
2022-10-04T21:37:16.082Z,9.05
2022-10-04T21:42:19.832Z,8.38
2022-10-04T21:47:23.693Z,13.30
2022-10-04T21:52:28.810Z,10.68
2022-10-04T21:57:35.678Z,11.85
2022-10-04T22:02:39.582Z,10.13
2022-10-04T22:07:44.722Z,8.52
2022-10-04T22:12:48.445Z,14.43
2022-10-04T22:17:52.230Z,7.87
2022-10-04T22:22:57.635Z,9.32
2022-10-04T22:28:01.466Z,15.05
2022-10-04T22:33:28.582Z,7.75
2022-10-04T22:38:33.642Z,8.90
2022-10-04T22:43:37.479Z,8.15
2022-10-04T22:48:41.266Z,17.02
2022-10-04T22:53:47.693Z,8.57
2022-10-04T22:58:51.422Z,9.95
2022-10-04T23:03:58.841Z,11.27
2022-10-04T23:09:03.967Z,7.62
2022-10-04T23:14:07.759Z,11.45
2022-10-04T23:19:14.722Z,6.80
2022-10-04T23:24:21.976Z,9.07
2022-10-04T23:29:28.818Z,11.38
2022-10-04T23:34:36.479Z,8.55
2022-10-04T23:39:41.899Z,11.60
2022-10-04T23:44:47.907Z,9.38
2022-10-04T23:49:54.463Z,11.15
2022-10-04T23:54:59.589Z,8.95
